Home   Weather   USA   Mount Airy   Past weeks
Flag for USA

Past Weather in Mount Airy, North Carolina, USA — Yesterday and Last 2 Weeks

Currently: 46 °F. Mostly cloudy. (Weather station: Mount Airy/Surry County Airport, USA). See more current weather

Past Weather in Mount Airy — Graph

°F

Mount Airy Temperature Yesterday

Maximum temperature yesterday: 62 °F (at 10:35 am)
Minimum temperature yesterday: 49 °F (at 6:55 am)
Average temperature yesterday: 54 °F

High & Low Weather Summary for the Past Weeks

 TemperatureHumidityPressure
High64 °F (Nov 25, 12:35 pm)100% (Dec 6, 11:15 pm)30.55 "Hg (Dec 6, 11:15 pm)
Low24 °F (Dec 2, 5:55 am)24% (Nov 24, 4:15 pm)29.61 "Hg (Nov 27, 2:15 pm)
Average46 °F74%30.19 "Hg
* Reported Nov 24 4:15 pm — Dec 9 4:35 pm, Mount Airy. Weather by CustomWeather, © 2022

Note: Actual official high and low records may vary slightly from our data, if they occured in-between our weather recording intervals... More about our weather records

Mount Airy Weather History for the Previous 24 Hours

Scroll right to see more
 ConditionsComfort  
Time TempWeatherWind HumidityBarometerVisibility
4:35 pm
Fri, Dec 9
46 °FOvercast.5 mph87%30.20 "Hg10 mi
4:15 pm46 °FOvercast.3 mph87%30.20 "Hg10 mi
3:55 pm46 °FMostly cloudy.5 mph87%30.20 "Hg10 mi
3:35 pm46 °FMostly cloudy.3 mph88%30.20 "Hg10 mi
3:15 pm46 °FOvercast.No wind88%30.21 "Hg10 mi
2:35 pm46 °FLow clouds.3 mph88%30.21 "Hg10 mi
2:15 pm46 °FLow clouds.5 mph89%30.21 "Hg10 mi
1:35 pm46 °FLow clouds.3 mph90%30.22 "Hg10 mi
12:55 pm45 °FMostly cloudy.6 mph91%30.24 "Hg10 mi
12:35 pm45 °FFog.5 mph95%30.24 "Hg4 mi
12:15 pm45 °FDrizzle. Low clouds.5 mph96%30.24 "Hg2 mi
11:55 am46 °FLow clouds.5 mph93%30.26 "Hg10 mi
11:15 am45 °FLow clouds.7 mph93%30.26 "Hg10 mi
10:55 am45 °FLow clouds.7 mph93%30.26 "Hg10 mi
10:35 am45 °FLow clouds.8 mph93%30.27 "Hg7 mi
10:15 am45 °FFog.3 mph96%30.28 "Hg4 mi
9:35 am45 °FFog.7 mph95%30.27 "Hg4 mi
8:55 am45 °FFog.6 mph96%30.27 "Hg3 mi
8:35 am45 °FFog.7 mph96%30.26 "Hg4 mi
8:15 am45 °FFog.6 mph95%30.25 "Hg4 mi
7:55 am46 °FLow clouds.5 mph95%30.25 "Hg7 mi
7:15 am46 °FLow clouds.No wind95%30.25 "Hg10 mi
6:55 am46 °FLow clouds.No wind96%30.24 "Hg10 mi
6:35 am46 °FLow clouds.3 mph95%30.24 "Hg7 mi
6:15 am46 °FFog.3 mph97%30.22 "Hg5 mi
5:55 am46 °FFog.6 mph95%30.22 "Hg5 mi
5:35 am46 °FLow clouds.8 mph95%30.23 "Hg7 mi
5:15 am47 °FLow clouds.5 mph96%30.23 "Hg10 mi
4:35 am47 °FLow clouds.5 mph94%30.23 "Hg10 mi
4:15 am47 °FMostly cloudy.6 mph94%30.22 "Hg10 mi
3:55 am47 °FLight rain. Low clouds.7 mph95%30.22 "Hg5 mi
3:35 am48 °FLow clouds.3 mph96%30.22 "Hg7 mi
3:15 am48 °FLow clouds.5 mph95%30.22 "Hg10 mi
2:35 am48 °FLow clouds.6 mph95%30.22 "Hg10 mi
2:15 am49 °FLow clouds.6 mph95%30.22 "Hg10 mi
1:35 am49 °FDrizzle. Low clouds.9 mph97%30.21 "Hg7 mi
1:15 am49 °FLight rain. Low clouds.6 mph97%30.22 "Hg7 mi
12:35 am50 °FDrizzle. Low clouds.6 mph97%30.22 "Hg5 mi
12:15 am50 °FDrizzle. Low clouds.3 mph97%30.22 "Hg7 mi
11:55 pm
Thu, Dec 8
50 °FDrizzle. Low clouds.6 mph97%30.22 "Hg5 mi
11:35 pm50 °FDrizzle. Low clouds.6 mph97%30.22 "Hg5 mi
11:15 pm51 °FDrizzle. Low clouds.No wind97%30.22 "Hg5 mi
10:55 pm51 °FDrizzle. Low clouds.3 mph97%30.21 "Hg5 mi
10:35 pm51 °FDrizzle. Low clouds.5 mph97%30.21 "Hg5 mi
10:15 pm51 °FLow clouds.7 mph96%30.20 "Hg10 mi
9:55 pm51 °FLow clouds.5 mph96%30.20 "Hg10 mi
9:35 pm52 °FDrizzle. Low clouds.7 mph96%30.20 "Hg10 mi
9:15 pm52 °FLow clouds.7 mph96%30.20 "Hg10 mi
8:35 pm52 °FRain. Low clouds.5 mph97%30.21 "Hg7 mi
8:15 pm53 °FHeavy rain. Low clouds.No wind97%30.23 "Hg5 mi
7:55 pm53 °FRain. Low clouds.No wind96%30.22 "Hg5 mi
6:35 pm54 °FLight rain. Low clouds.No wind96%30.23 "Hg5 mi
6:15 pm54 °FRain. Low clouds.3 mph94%30.23 "Hg7 mi
5:55 pm54 °FRain. Low clouds.3 mph95%30.22 "Hg7 mi
5:15 pm55 °FLight rain. Overcast.No wind92%30.22 "Hg7 mi
Weather by CustomWeather, © 2022

See weather overview